createdAt,value
2019-05-14T00:01:05.766Z,102813.06
2019-05-14T00:06:12.965Z,102810.85
2019-05-14T00:08:41.988Z,102812.59
2019-05-14T00:11:12.805Z,102809.08
2019-05-14T00:13:41.649Z,102807.77
2019-05-14T00:16:11.855Z,102799.42
2019-05-14T00:18:41.969Z,102803.34
2019-05-14T00:21:12.214Z,102799.83
2019-05-14T00:23:42.177Z,102796.33
2019-05-14T00:26:12.173Z,102796.30
2019-05-14T00:28:42.388Z,102795.02
2019-05-14T00:31:12.103Z,102794.58
2019-05-14T00:36:24.836Z,102789.27
2019-05-14T00:38:53.890Z,102791.05
2019-05-14T00:41:23.195Z,102790.55
2019-05-14T00:43:51.984Z,102793.66
2019-05-14T00:46:21.222Z,102787.97
2019-05-14T00:51:31.820Z,102791.02
2019-05-14T00:54:01.711Z,102791.39
2019-05-14T00:56:32.100Z,102800.61
2019-05-14T00:59:01.489Z,102797.52
2019-05-14T01:01:31.832Z,102798.86
2019-05-14T01:04:01.281Z,102800.59
2019-05-14T01:06:31.435Z,102794.86
2019-05-14T01:11:44.970Z,102794.45
2019-05-14T01:14:13.718Z,102793.98
2019-05-14T01:16:42.623Z,102796.11
2019-05-14T01:19:12.388Z,102793.08
2019-05-14T01:21:41.712Z,102792.20
2019-05-14T01:26:48.989Z,102785.16
2019-05-14T01:31:55.281Z,102789.03
2019-05-14T01:34:23.954Z,102788.09
2019-05-14T01:36:53.074Z,102784.10
2019-05-14T01:39:21.913Z,102783.55
2019-05-14T01:41:51.716Z,102777.09
2019-05-14T01:44:21.347Z,102774.43
2019-05-14T02:17:18.038Z,102769.59
2019-05-14T02:19:47.124Z,102775.83
2019-05-14T02:22:16.530Z,102772.22
2019-05-14T02:24:45.213Z,102772.55
2019-05-14T02:27:14.228Z,102775.00
2019-05-14T02:32:22.649Z,102769.24
2019-05-14T02:37:30.104Z,102768.61
2019-05-14T02:39:59.855Z,102771.72
2019-05-14T02:42:29.691Z,102771.36
2019-05-14T02:47:39.322Z,102764.80
2019-05-14T02:50:10.049Z,102771.09
2019-05-14T02:55:15.245Z,102769.47
2019-05-14T02:57:44.244Z,102766.22
2019-05-14T03:00:13.984Z,102765.34
2019-05-14T03:02:43.093Z,102762.51
2019-05-14T03:07:52.531Z,102762.39
2019-05-14T03:10:21.090Z,102772.44
2019-05-14T03:12:50.407Z,102768.55
2019-05-14T03:15:20.011Z,102773.02
2019-05-14T03:20:29.004Z,102775.72
2019-05-14T03:25:41.028Z,102775.86
2019-05-14T03:28:09.663Z,102780.17
2019-05-14T03:30:42.495Z,102783.11
2019-05-14T03:33:13.240Z,102778.77
2019-05-14T03:35:44.623Z,102777.46
2019-05-14T03:38:10.923Z,102779.56
2019-05-14T03:40:40.139Z,102777.00
2019-05-14T03:43:09.135Z,102781.65
2019-05-14T03:45:39.146Z,102778.32
2019-05-14T03:48:10.387Z,102779.53
2019-05-14T03:50:39.019Z,102779.30
2019-05-14T03:53:10.055Z,102781.37
2019-05-14T03:58:21.086Z,102775.51
2019-05-14T04:00:52.759Z,102774.30
2019-05-14T04:03:22.477Z,102779.59
2019-05-14T04:05:52.191Z,102780.48
2019-05-14T04:08:23.194Z,102776.13
2019-05-14T04:13:42.411Z,102771.38
2019-05-14T04:16:14.129Z,102775.76
2019-05-14T04:18:50.510Z,102772.30
2019-05-14T04:21:20.767Z,102770.10
2019-05-14T04:26:30.294Z,102766.00
2019-05-14T04:29:00.528Z,102773.75
2019-05-14T04:31:32.197Z,102772.09
2019-05-14T04:34:02.723Z,102772.54
2019-05-14T04:36:31.566Z,102771.23
2019-05-14T04:39:00.839Z,102775.72
2019-05-14T04:41:30.088Z,102772.20
2019-05-14T04:46:39.655Z,102768.08
2019-05-14T04:49:09.598Z,102775.02
2019-05-14T04:51:39.675Z,102784.77
2019-05-14T04:56:50.641Z,102773.98
2019-05-14T04:59:19.329Z,102775.30
2019-05-14T05:04:29.886Z,102772.34
2019-05-14T05:06:59.443Z,102778.94
2019-05-14T05:12:08.857Z,102785.28
2019-05-14T05:14:38.962Z,102786.09
2019-05-14T05:17:09.221Z,102791.41
2019-05-14T05:19:39.401Z,102788.86
2019-05-14T05:22:08.098Z,102796.36
2019-05-14T05:24:38.212Z,102792.05
2019-05-14T05:27:09.323Z,102794.86
2019-05-14T05:29:39.214Z,102801.48
2019-05-14T05:32:08.700Z,102798.41
2019-05-14T05:34:38.807Z,102794.86
2019-05-14T05:37:08.802Z,102797.33
2019-05-14T05:39:38.683Z,102798.25
2019-05-14T05:42:09.167Z,102795.67
2019-05-14T05:44:39.577Z,102796.61
2019-05-14T05:47:09.174Z,102795.73
2019-05-14T05:49:38.310Z,102795.45
2019-05-14T05:54:49.066Z,102790.97
2019-05-14T05:57:18.750Z,102796.58
2019-05-14T05:59:48.485Z,102797.05
2019-05-14T06:04:55.763Z,102781.48
2019-05-14T06:07:24.742Z,102783.20
2019-05-14T06:09:53.357Z,102789.34
2019-05-14T06:12:22.370Z,102784.52
2019-05-14T06:17:29.022Z,102784.97
2019-05-14T06:22:38.298Z,102781.47
2019-05-14T06:25:10.571Z,102788.45
2019-05-14T06:27:38.096Z,102782.36
2019-05-14T06:32:44.600Z,102785.86
2019-05-14T06:35:13.304Z,102788.92
2019-05-14T06:37:41.902Z,102796.31
2019-05-14T06:40:10.867Z,102797.22
2019-05-14T06:42:39.726Z,102785.72
2019-05-14T06:47:50.188Z,102786.01
2019-05-14T06:50:19.201Z,102791.42
2019-05-14T06:55:28.401Z,102787.66
2019-05-14T06:57:58.508Z,102789.80
2019-05-14T07:00:28.664Z,102789.80
2019-05-14T07:02:58.392Z,102791.31
2019-05-14T07:05:28.104Z,102795.43
2019-05-14T07:07:59.747Z,102801.65
2019-05-14T07:10:28.773Z,102792.84
2019-05-14T07:12:59.256Z,102788.39
2019-05-14T07:15:29.004Z,102801.42
2019-05-14T07:17:58.523Z,102790.25
2019-05-14T07:23:08.208Z,102789.42
2019-05-14T07:28:19.373Z,102795.63
2019-05-14T07:30:48.494Z,102806.83
2019-05-14T07:33:18.353Z,102797.73
2019-05-14T07:35:48.798Z,102802.84
2019-05-14T07:40:58.528Z,102788.67
2019-05-14T07:46:08.281Z,102796.13
2019-05-14T07:48:38.977Z,102791.63
2019-05-14T07:51:08.892Z,102795.94
2019-05-14T07:53:42.083Z,102803.86
2019-05-14T07:58:45.782Z,102791.38
2019-05-14T08:01:14.393Z,102796.23
2019-05-14T08:06:20.959Z,102796.69
2019-05-14T08:08:49.610Z,102791.80
2019-05-14T08:13:58.491Z,102785.96
2019-05-14T08:16:28.869Z,102790.50
2019-05-14T08:18:59.930Z,102786.76
2019-05-14T08:24:08.974Z,102770.47
2019-05-14T08:29:17.946Z,102768.59
2019-05-14T08:31:48.631Z,102770.64
2019-05-14T08:36:58.844Z,102769.39
2019-05-14T08:39:30.507Z,102765.92
2019-05-14T08:42:03.872Z,102764.95
2019-05-14T08:44:30.122Z,102763.52
2019-05-14T08:47:00.785Z,102764.91
2019-05-14T08:49:39.228Z,102761.89
2019-05-14T08:52:00.615Z,102758.67
2019-05-14T08:54:29.610Z,102759.84
2019-05-14T08:56:58.534Z,102750.03
2019-05-14T08:59:28.710Z,102737.48
2019-05-14T09:02:05.938Z,102737.48
2019-05-14T09:04:30.321Z,102728.48
2019-05-14T09:06:58.541Z,102728.48
2019-05-14T09:09:28.948Z,102732.84
2019-05-14T09:11:59.932Z,102731.84
2019-05-14T09:14:28.712Z,102737.28
2019-05-14T09:19:39.228Z,102733.42
2019-05-14T09:22:09.595Z,102731.59
2019-05-14T09:24:38.782Z,102733.73
2019-05-14T09:27:08.565Z,102724.45
2019-05-14T09:29:39.441Z,102726.66
2019-05-14T09:34:48.483Z,102720.97
2019-05-14T09:37:19.289Z,102725.27
2019-05-14T09:42:24.799Z,102717.10
2019-05-14T09:44:53.419Z,102718.73
2019-05-14T09:47:23.728Z,102715.56
2019-05-14T09:52:29.958Z,102698.51
2019-05-14T09:54:58.696Z,102707.61
2019-05-14T09:57:28.162Z,102714.97
2019-05-14T09:59:58.570Z,102699.02
2019-05-14T10:05:09.030Z,102700.66
2019-05-14T10:07:39.107Z,102690.94
2019-05-14T10:10:08.264Z,102685.04
2019-05-14T10:12:48.208Z,102692.92
2019-05-14T10:17:49.980Z,102676.61
2019-05-14T10:20:36.014Z,102681.63
2019-05-14T10:22:49.919Z,102675.62
2019-05-14T10:25:19.203Z,102676.63
2019-05-14T10:27:48.549Z,102659.11
2019-05-14T10:30:18.186Z,102663.48
2019-05-14T10:32:49.224Z,102667.73
2019-05-14T10:35:19.220Z,102658.05
2019-05-14T10:40:29.088Z,102637.13
2019-05-14T10:42:57.310Z,102643.55
2019-05-14T10:45:28.750Z,102644.22
2019-05-14T10:50:52.243Z,102641.44
2019-05-14T10:53:09.077Z,102648.08
2019-05-14T10:55:38.699Z,102657.44
2019-05-14T10:58:08.842Z,102651.25
2019-05-14T11:00:41.513Z,102646.53
2019-05-14T11:03:08.532Z,102645.41
2019-05-14T11:05:41.304Z,102643.89
2019-05-14T11:08:11.886Z,102640.80
2019-05-14T11:10:42.190Z,102648.64
2019-05-14T11:13:11.219Z,102630.98
2019-05-14T11:15:40.635Z,102635.89
2019-05-14T11:20:51.565Z,102629.58
2019-05-14T11:23:20.087Z,102623.88
2019-05-14T11:28:28.699Z,102612.89
2019-05-14T11:30:57.279Z,102617.45
2019-05-14T11:36:09.030Z,102599.42
2019-05-14T11:38:37.689Z,102599.44
2019-05-14T11:43:44.593Z,102598.06
2019-05-14T11:46:13.657Z,102595.92
2019-05-14T11:48:43.054Z,102597.86
2019-05-14T11:51:12.062Z,102592.59
2019-05-14T11:53:40.820Z,102584.23
2019-05-14T11:56:09.473Z,102583.91
2019-05-14T12:01:18.941Z,102574.26
2019-05-14T12:03:49.955Z,102572.34
2019-05-14T12:06:18.823Z,102570.36
2019-05-14T12:08:48.313Z,102576.45
2019-05-14T12:11:19.298Z,102562.16
2019-05-14T12:13:48.707Z,102565.08
2019-05-14T12:16:17.774Z,102563.02
2019-05-14T12:18:48.436Z,102563.72
2019-05-14T12:21:17.006Z,102563.27
2019-05-14T12:23:46.600Z,102568.84
2019-05-14T12:26:18.898Z,102567.97
2019-05-14T12:28:49.184Z,102562.34
2019-05-14T12:33:58.219Z,102556.07
2019-05-14T12:39:09.556Z,102544.86
2019-05-14T12:44:16.097Z,102537.92
2019-05-14T12:46:45.856Z,102531.23
2019-05-14T12:49:14.961Z,102540.03
2019-05-14T12:51:44.023Z,102540.87
2019-05-14T12:54:13.408Z,102527.09
2019-05-14T12:59:21.411Z,102507.84
2019-05-14T13:01:50.565Z,102520.77
2019-05-14T13:04:20.088Z,102520.73
2019-05-14T13:06:48.966Z,102522.61
2019-05-14T13:09:21.368Z,102513.35
2019-05-14T13:11:48.132Z,102515.80
2019-05-14T13:14:16.926Z,102503.83
2019-05-14T13:19:25.438Z,102500.06
2019-05-14T13:22:08.688Z,102504.80
2019-05-14T13:24:24.572Z,102501.60
2019-05-14T13:26:53.277Z,102490.67
2019-05-14T13:29:22.348Z,102487.33
2019-05-14T13:34:28.986Z,102482.73
2019-05-14T13:36:59.639Z,102478.55
2019-05-14T13:39:28.441Z,102476.25
2019-05-14T13:41:59.839Z,102471.18
2019-05-14T13:44:29.188Z,102473.64
2019-05-14T13:46:59.623Z,102465.89
2019-05-14T13:49:29.583Z,102465.26
2019-05-14T13:54:39.739Z,102438.94
2019-05-14T13:57:11.935Z,102442.52
2019-05-14T13:59:43.744Z,102439.56
2019-05-14T14:04:48.323Z,102448.05
2019-05-14T14:07:18.963Z,102460.42
2019-05-14T14:09:49.663Z,102451.25
2019-05-14T14:12:18.065Z,102448.29
2019-05-14T14:14:49.291Z,102443.55
2019-05-14T14:19:54.885Z,102428.33
2019-05-14T14:25:03.783Z,102419.41
2019-05-14T14:27:32.561Z,102420.27
2019-05-14T14:30:01.176Z,102414.91
2019-05-14T14:32:30.346Z,102422.33
2019-05-14T14:34:59.172Z,102420.52
2019-05-14T14:37:28.684Z,102424.03
2019-05-14T14:39:59.295Z,102422.85
2019-05-14T14:45:08.624Z,102414.75
2019-05-14T14:47:39.334Z,102404.62
2019-05-14T14:50:08.933Z,102399.47
2019-05-14T14:52:37.601Z,102398.38
2019-05-14T14:55:06.410Z,102394.45
2019-05-14T14:57:35.063Z,102391.78
2019-05-14T15:00:04.715Z,102396.22
2019-05-14T15:05:14.403Z,102392.69
2019-05-14T15:07:41.948Z,102395.06
2019-05-14T15:10:11.053Z,102397.61
2019-05-14T15:12:40.374Z,102395.84
2019-05-14T15:15:09.236Z,102385.07
2019-05-14T15:17:39.250Z,102387.73
2019-05-14T15:22:49.474Z,102385.53
2019-05-14T15:25:18.569Z,102388.20
2019-05-14T15:30:28.739Z,102378.70
2019-05-14T15:32:59.791Z,102386.84
2019-05-14T15:35:28.603Z,102378.50
2019-05-14T15:37:58.980Z,102374.58
2019-05-14T15:40:28.961Z,102374.73
2019-05-14T15:42:59.002Z,102382.42
2019-05-14T15:45:28.809Z,102373.59
2019-05-14T15:48:02.981Z,102371.34
2019-05-14T15:50:29.244Z,102370.84
2019-05-14T15:52:58.371Z,102369.42
2019-05-14T15:58:04.852Z,102376.70
2019-05-14T16:00:33.783Z,102369.67
2019-05-14T16:05:41.858Z,102370.42
2019-05-14T16:08:10.832Z,102369.23
2019-05-14T16:10:40.057Z,102360.96
2019-05-14T16:13:09.214Z,102363.47
2019-05-14T16:15:38.968Z,102354.54
2019-05-14T16:18:15.432Z,102349.80
2019-05-14T16:20:39.196Z,102362.97
2019-05-14T16:23:10.786Z,102353.44
2019-05-14T16:25:39.063Z,102355.06
2019-05-14T16:30:49.710Z,102344.77
2019-05-14T16:33:18.759Z,102349.50
2019-05-14T16:35:48.524Z,102350.12
2019-05-14T16:38:17.800Z,102346.48
2019-05-14T16:40:48.732Z,102353.44
2019-05-14T16:43:19.002Z,102358.83
2019-05-14T16:45:49.155Z,102351.83
2019-05-14T16:48:18.291Z,102352.28
2019-05-14T16:50:48.885Z,102348.13
2019-05-14T16:53:19.515Z,102338.94
2019-05-14T16:55:48.988Z,102342.41
2019-05-14T16:58:19.458Z,102349.72
2019-05-14T17:00:48.256Z,102337.11
2019-05-14T17:05:58.020Z,102339.67
2019-05-14T17:08:28.487Z,102339.52
2019-05-14T17:13:34.874Z,102335.03
2019-05-14T17:16:03.876Z,102335.03
2019-05-14T17:18:32.653Z,102337.28
2019-05-14T17:21:01.704Z,102344.80
2019-05-14T17:23:30.326Z,102337.77
2019-05-14T17:28:40.585Z,102337.64
2019-05-14T17:31:09.201Z,102337.66
2019-05-14T17:33:40.469Z,102329.70
2019-05-14T17:36:09.684Z,102327.05
2019-05-14T17:38:39.180Z,102335.80
2019-05-14T17:41:09.433Z,102337.22
2019-05-14T17:46:18.361Z,102337.52
2019-05-14T17:48:48.676Z,102345.83
2019-05-14T17:51:18.108Z,102341.80
2019-05-14T17:53:48.050Z,102337.32
2019-05-14T17:56:19.153Z,102335.69
2019-05-14T17:58:48.909Z,102339.41
2019-05-14T18:03:58.495Z,102334.25
2019-05-14T18:06:28.577Z,102338.83
2019-05-14T18:08:58.757Z,102342.73
2019-05-14T18:11:28.353Z,102340.64
2019-05-14T18:13:59.004Z,102342.05
2019-05-14T18:16:28.638Z,102345.39
2019-05-14T18:18:58.290Z,102342.37
2019-05-14T18:21:28.545Z,102342.45
2019-05-14T18:23:58.577Z,102345.73
2019-05-14T18:26:29.086Z,102342.13
2019-05-14T18:28:58.158Z,102339.81
2019-05-14T18:31:27.170Z,102341.95
2019-05-14T18:33:58.594Z,102335.58
2019-05-14T18:36:28.520Z,102340.00
2019-05-14T18:38:58.589Z,102338.37
2019-05-14T18:41:29.298Z,102336.27
2019-05-14T18:43:58.829Z,102337.30
2019-05-14T18:46:28.526Z,102338.11
2019-05-14T18:48:59.231Z,102339.01
2019-05-14T18:51:28.860Z,102337.05
2019-05-14T18:53:58.409Z,102338.33
2019-05-14T18:56:29.250Z,102338.24
2019-05-14T19:01:39.509Z,102335.53
2019-05-14T19:04:08.226Z,102338.33
2019-05-14T19:06:38.945Z,102338.55
2019-05-14T19:09:10.599Z,102333.90
2019-05-14T19:14:18.728Z,102333.62
2019-05-14T19:16:48.914Z,102338.87
2019-05-14T19:19:20.474Z,102338.13
2019-05-14T19:24:28.700Z,102338.93
2019-05-14T19:26:59.512Z,102338.55
2019-05-14T19:29:28.229Z,102336.99
2019-05-14T19:31:57.386Z,102336.55
2019-05-14T19:34:28.552Z,102337.30
2019-05-14T19:36:56.793Z,102336.88
2019-05-14T19:39:25.457Z,102336.06
2019-05-14T19:41:54.226Z,102333.34
2019-05-14T19:44:22.839Z,102340.12
2019-05-14T19:46:52.090Z,102340.62
2019-05-14T19:51:59.944Z,102329.74
2019-05-14T19:54:29.341Z,102335.58
2019-05-14T19:59:38.637Z,102330.17
2019-05-14T20:02:09.508Z,102334.63
2019-05-14T20:04:37.787Z,102341.13
2019-05-14T20:07:08.793Z,102340.02
2019-05-14T20:09:38.845Z,102345.55
2019-05-14T20:12:07.770Z,102343.45
2019-05-14T20:14:38.301Z,102343.53
2019-05-14T20:17:08.967Z,102345.64
2019-05-14T20:19:39.374Z,102348.43
2019-05-14T20:22:08.170Z,102350.82
2019-05-14T20:24:41.220Z,102351.61
2019-05-14T20:27:11.917Z,102347.50
2019-05-14T20:29:39.041Z,102344.89
2019-05-14T20:34:53.884Z,102334.95
2019-05-14T20:37:22.562Z,102339.50
2019-05-14T20:39:51.483Z,102336.35
2019-05-14T20:45:03.404Z,102337.81
2019-05-14T20:47:32.622Z,102339.74
2019-05-14T20:50:01.278Z,102336.73
2019-05-14T20:52:30.266Z,102339.33
2019-05-14T20:57:38.382Z,102337.81
2019-05-14T21:00:07.898Z,102340.94
2019-05-14T21:02:39.368Z,102337.92
2019-05-14T21:05:13.417Z,102336.27
2019-05-14T21:07:39.179Z,102341.55
2019-05-14T21:10:08.045Z,102340.38
2019-05-14T21:15:15.635Z,102334.66
2019-05-14T21:17:44.404Z,102336.50
2019-05-14T21:20:13.056Z,102337.86
2019-05-14T21:25:20.685Z,102343.68
2019-05-14T21:30:29.263Z,102336.94
2019-05-14T21:33:00.118Z,102339.57
2019-05-14T21:35:29.158Z,102335.29
2019-05-14T21:37:59.371Z,102338.50
2019-05-14T21:43:06.276Z,102329.37
2019-05-14T21:45:34.980Z,102335.56
2019-05-14T21:48:04.049Z,102329.50
2019-05-14T21:50:32.864Z,102323.38
2019-05-14T21:53:01.506Z,102324.69
2019-05-14T21:58:09.029Z,102318.98
2019-05-14T22:00:48.302Z,102321.17
2019-05-14T22:06:05.244Z,102314.66
2019-05-14T22:08:34.182Z,102315.16
2019-05-14T22:11:03.165Z,102316.88
2019-05-14T22:13:32.326Z,102312.95
2019-05-14T22:16:00.951Z,102312.55
2019-05-14T22:18:29.755Z,102321.83
2019-05-14T22:20:58.823Z,102313.95
2019-05-14T22:23:29.183Z,102304.71
2019-05-14T22:25:58.780Z,102309.10
2019-05-14T22:28:28.852Z,102311.77
2019-05-14T22:30:58.732Z,102308.23
2019-05-14T22:33:28.478Z,102308.70
2019-05-14T22:35:58.090Z,102312.22
2019-05-14T22:38:29.348Z,102306.53
2019-05-14T22:40:59.195Z,102308.75
2019-05-14T22:43:28.849Z,102299.97
2019-05-14T22:45:59.111Z,102298.66
2019-05-14T22:48:27.838Z,102298.67
2019-05-14T22:50:59.119Z,102296.52
2019-05-14T22:53:27.817Z,102299.16
2019-05-14T22:55:58.619Z,102299.13
2019-05-14T22:58:28.834Z,102292.13
2019-05-14T23:01:13.636Z,102287.78
2019-05-14T23:03:28.996Z,102287.36
2019-05-14T23:05:58.233Z,102284.30
2019-05-14T23:08:26.936Z,102277.73
2019-05-14T23:10:55.788Z,102272.53
2019-05-14T23:13:24.760Z,102269.45
2019-05-14T23:15:53.372Z,102270.73
2019-05-14T23:18:22.456Z,102265.10
2019-05-14T23:20:51.173Z,102267.73
2019-05-14T23:23:20.566Z,102265.53
2019-05-14T23:25:49.514Z,102269.89
2019-05-14T23:28:19.265Z,102270.78
2019-05-14T23:30:48.445Z,102266.41
2019-05-14T23:33:19.045Z,102275.60
2019-05-14T23:35:48.351Z,102266.83
2019-05-14T23:40:58.643Z,102270.80
2019-05-14T23:43:28.693Z,102273.87
2019-05-14T23:48:42.459Z,102272.55
2019-05-14T23:51:11.098Z,102272.98
2019-05-14T23:56:19.136Z,102274.75
2019-05-14T23:58:57.750Z,102269.92
